首页
METAR-TAF:

METAR-TAF

机场 :

Sanderson Field Airport

雪爾頓, 华盛顿, 美国

纬度: 47-14-17N, 经度: 123-08-27W, 海拔: 82米

当前天气观测

该预报发布于36分钟前的23:53 UTC
风速12节,风向北转东北,有时为17节阵风
温度 24°C
湿度 18%
气压 1018 hPa
能見度: 16.1公里
天空无云

METAR: KSHN 182353Z AUTO 03012G17KT 10SM CLR 24/M02 A3005 RMK AO2 SLP179 T02391022 10239 20156 56019

时间: 17:29 (00:29 UTC)


TAF: 丢失

超过4000个机场的气象观测和天气预报(METAR&TAF报告)。

可查询的气象台以黄色和红色小点在地图上表示。

将鼠标移到小点上方,可查看气象台名称。

然后点击查看天气观测和预报。

如需切换地图:点击带黑十字的绿色按钮放大地图;点击带横线的绿色按钮缩小地图;或者点击绿色箭头查看邻近地区的地图。


METAR-TAF: